createdAt,value
2023-03-12T00:00:25.059Z,67.23
2023-03-12T00:01:25.439Z,67.44
2023-03-12T00:02:24.806Z,67.75
2023-03-12T00:03:25.227Z,67.54
2023-03-12T00:04:25.605Z,67.13
2023-03-12T00:05:24.830Z,67.23
2023-03-12T00:06:25.240Z,67.54
2023-03-12T00:07:24.573Z,67.44
2023-03-12T00:08:24.933Z,67.33
2023-03-12T00:09:25.253Z,67.54
2023-03-12T00:10:24.594Z,67.65
2023-03-12T00:11:25.008Z,67.44
2023-03-12T00:12:26.418Z,67.44
2023-03-12T00:13:24.495Z,67.96
2023-03-12T00:14:24.909Z,67.75
2023-03-12T00:15:25.289Z,68.17
2023-03-12T00:16:24.831Z,67.85
2023-03-12T00:17:25.044Z,68.27
2023-03-12T00:18:24.373Z,68.38
2023-03-12T00:19:24.798Z,68.38
2023-03-12T00:20:25.214Z,68.27
2023-03-12T00:21:24.500Z,68.79
2023-03-12T00:22:24.970Z,68.17
2023-03-12T00:23:25.284Z,67.96
2023-03-12T00:24:24.632Z,67.85
2023-03-12T00:25:25.021Z,68.27
2023-03-12T00:26:24.360Z,67.96
2023-03-12T00:27:24.689Z,68.27
2023-03-12T00:28:25.068Z,68.07
2023-03-12T00:29:24.414Z,68.17
2023-03-12T00:30:24.800Z,68.17
2023-03-12T00:31:24.190Z,68.27
2023-03-12T00:32:24.710Z,68.17
2023-03-12T00:33:24.910Z,68.17
2023-03-12T00:34:24.248Z,68.27
2023-03-12T00:35:24.702Z,68.17
2023-03-12T00:36:25.024Z,68.38
2023-03-12T00:37:24.326Z,68.38
2023-03-12T00:38:24.764Z,68.17
2023-03-12T00:39:24.074Z,67.85
2023-03-12T00:40:24.436Z,68.17
2023-03-12T00:41:24.798Z,68.17
2023-03-12T00:42:24.124Z,68.17
2023-03-12T00:43:24.534Z,68.48
2023-03-12T00:44:24.969Z,69.00
2023-03-12T00:45:24.200Z,68.90
2023-03-12T00:46:24.627Z,69.21
2023-03-12T00:47:25.004Z,68.90
2023-03-12T00:48:24.353Z,68.79
2023-03-12T00:49:24.730Z,68.79
2023-03-12T00:50:24.108Z,68.79
2023-03-12T00:51:24.004Z,68.69
2023-03-12T00:52:24.444Z,69.31
2023-03-12T00:53:24.851Z,69.31
2023-03-12T00:54:24.202Z,69.35
2023-03-12T00:55:24.660Z,69.42
2023-03-12T00:56:24.927Z,69.76
2023-03-12T00:57:24.401Z,70.07
2023-03-12T00:58:24.803Z,69.45
2023-03-12T00:59:24.138Z,69.56
2023-03-12T01:00:24.551Z,69.66
2023-03-12T01:01:23.974Z,69.56
2023-03-12T01:02:24.309Z,69.63
2023-03-12T01:03:24.733Z,69.42
2023-03-12T01:04:24.202Z,69.42
2023-03-12T01:05:24.500Z,69.31
2023-03-12T01:06:23.872Z,69.10
2023-03-12T01:07:24.327Z,69.00
2023-03-12T01:08:24.692Z,68.45
2023-03-12T01:09:24.070Z,68.45
2023-03-12T01:10:24.481Z,68.55
2023-03-12T01:11:23.839Z,68.45
2023-03-12T01:12:24.282Z,68.24
2023-03-12T01:13:23.723Z,68.10
2023-03-12T01:14:24.061Z,68.10
2023-03-12T01:15:24.529Z,68.00
2023-03-12T01:16:23.940Z,68.00
2023-03-12T01:17:24.279Z,68.00
2023-03-12T01:18:23.722Z,67.69
2023-03-12T01:19:24.314Z,67.38
2023-03-12T01:20:24.541Z,67.27
2023-03-12T01:21:23.899Z,67.48
2023-03-12T01:22:24.333Z,67.27
2023-03-12T01:23:23.717Z,67.38
2023-03-12T01:24:24.148Z,67.69
2023-03-12T01:25:23.868Z,67.90
2023-03-12T01:26:23.958Z,67.48
2023-03-12T01:27:24.388Z,67.58
2023-03-12T01:28:23.765Z,67.93
2023-03-12T01:29:24.202Z,68.24
2023-03-12T01:30:23.646Z,68.13
2023-03-12T01:31:24.075Z,68.55
2023-03-12T01:32:23.423Z,68.21
2023-03-12T01:33:23.856Z,68.10
2023-03-12T01:34:24.261Z,67.79
2023-03-12T01:35:23.699Z,67.48
2023-03-12T01:36:24.154Z,67.58
2023-03-12T01:37:23.448Z,68.00
2023-03-12T01:38:23.870Z,68.00
2023-03-12T01:39:24.276Z,68.13
2023-03-12T01:40:23.640Z,68.03
2023-03-12T01:41:24.056Z,68.35
2023-03-12T01:42:23.539Z,68.45
2023-03-12T01:43:23.859Z,68.45
2023-03-12T01:44:23.239Z,68.45
2023-03-12T01:45:23.664Z,68.45
2023-03-12T01:46:24.120Z,68.76
2023-03-12T01:47:23.456Z,68.24
2023-03-12T01:48:23.950Z,67.93
2023-03-12T01:49:23.241Z,68.13
2023-03-12T01:50:23.656Z,68.13
2023-03-12T01:51:24.083Z,68.35
2023-03-12T01:52:23.474Z,68.45
2023-03-12T01:53:23.868Z,68.66
2023-03-12T01:54:23.323Z,68.76
2023-03-12T01:55:23.681Z,68.76
2023-03-12T01:56:23.069Z,69.07
2023-03-12T01:57:23.502Z,68.45
2023-03-12T01:58:23.917Z,68.55
2023-03-12T01:59:23.290Z,68.55
2023-03-12T02:00:23.791Z,68.55
2023-03-12T02:01:23.175Z,68.45
2023-03-12T02:02:23.543Z,68.97
2023-03-12T02:03:24.031Z,69.10
2023-03-12T02:04:23.384Z,69.21
2023-03-12T02:05:23.774Z,69.31
2023-03-12T02:06:23.177Z,69.42
2023-03-12T02:07:23.551Z,69.21
2023-03-12T02:08:22.957Z,69.31
2023-03-12T02:09:23.397Z,69.10
2023-03-12T02:10:23.830Z,69.21
2023-03-12T02:11:23.446Z,69.53
2023-03-12T02:12:23.686Z,69.42
2023-03-12T02:13:23.051Z,69.42
2023-03-12T02:14:23.490Z,69.53
2023-03-12T02:15:22.902Z,69.94
2023-03-12T02:16:23.340Z,70.15
2023-03-12T02:17:23.837Z,70.04
2023-03-12T02:18:23.128Z,70.15
2023-03-12T02:19:23.553Z,70.46
2023-03-12T02:20:22.938Z,70.36
2023-03-12T02:21:23.409Z,70.25
2023-03-12T02:22:22.743Z,70.36
2023-03-12T02:23:23.207Z,70.70
2023-03-12T02:24:23.592Z,70.18
2023-03-12T02:25:22.929Z,70.50
2023-03-12T02:26:24.303Z,70.60
2023-03-12T02:27:23.686Z,70.81
2023-03-12T02:28:24.107Z,70.81
2023-03-12T02:29:24.218Z,70.50
2023-03-12T02:30:22.955Z,70.39
2023-03-12T02:31:23.404Z,70.81
2023-03-12T02:32:22.799Z,70.81
2023-03-12T02:33:23.185Z,71.12
2023-03-12T02:34:22.590Z,71.12
2023-03-12T02:35:23.045Z,71.12
2023-03-12T02:36:23.433Z,71.43
2023-03-12T02:37:22.842Z,71.64
2023-03-12T02:38:23.219Z,71.22
2023-03-12T02:39:23.639Z,71.01
2023-03-12T02:40:23.063Z,70.81
2023-03-12T02:41:23.544Z,70.81
2023-03-12T02:42:22.876Z,71.01
2023-03-12T02:43:22.589Z,70.56
2023-03-12T02:44:23.093Z,70.46
2023-03-12T02:45:22.526Z,70.36
2023-03-12T02:46:22.963Z,69.94
2023-03-12T02:47:23.395Z,69.84
2023-03-12T02:48:22.799Z,70.15
2023-03-12T02:49:24.239Z,70.46
2023-03-12T02:50:22.564Z,70.15
2023-03-12T02:51:22.965Z,69.84
2023-03-12T02:52:22.360Z,69.84
2023-03-12T02:53:22.873Z,70.15
2023-03-12T02:54:23.261Z,70.04
2023-03-12T02:55:22.669Z,69.73
2023-03-12T02:56:23.134Z,69.53
2023-03-12T02:57:22.538Z,70.04
2023-03-12T02:58:23.004Z,70.15
2023-03-12T02:59:22.454Z,69.63
2023-03-12T03:00:22.872Z,70.15
2023-03-12T03:01:22.357Z,70.36
2023-03-12T03:02:22.734Z,70.36
2023-03-12T03:03:23.185Z,70.36
2023-03-12T03:04:22.598Z,70.56
2023-03-12T03:05:22.987Z,69.94
2023-03-12T03:06:22.373Z,69.63
2023-03-12T03:07:22.910Z,70.36
2023-03-12T03:08:22.233Z,69.94
2023-03-12T03:09:22.644Z,69.73
2023-03-12T03:10:23.091Z,69.73
2023-03-12T03:11:22.417Z,70.15
2023-03-12T03:12:22.828Z,70.04
2023-03-12T03:13:22.245Z,69.84
2023-03-12T03:14:22.648Z,70.15
2023-03-12T03:15:23.143Z,69.94
2023-03-12T03:16:22.419Z,70.46
2023-03-12T03:17:22.909Z,70.46
2023-03-12T03:18:22.191Z,70.36
2023-03-12T03:19:22.615Z,70.36
2023-03-12T03:20:21.985Z,70.46
2023-03-12T03:21:22.156Z,70.67
2023-03-12T03:22:22.481Z,70.88
2023-03-12T03:23:22.846Z,70.88
2023-03-12T03:24:22.217Z,71.19
2023-03-12T03:25:22.627Z,70.88
2023-03-12T03:26:21.959Z,70.25
2023-03-12T03:27:22.389Z,70.36
2023-03-12T03:28:22.766Z,70.78
2023-03-12T03:29:22.108Z,70.56
2023-03-12T03:30:22.508Z,70.78
2023-03-12T03:31:21.947Z,70.88
2023-03-12T03:32:22.275Z,70.78
2023-03-12T03:33:22.707Z,70.88
2023-03-12T03:34:30.350Z,70.56
2023-03-12T03:35:22.414Z,70.56
2023-03-12T03:36:22.799Z,71.09
2023-03-12T03:37:22.158Z,70.88
2023-03-12T03:38:22.521Z,70.78
2023-03-12T03:39:23.234Z,70.56
2023-03-12T03:40:23.314Z,70.56
2023-03-12T03:41:22.675Z,70.56
2023-03-12T03:42:22.059Z,70.46
2023-03-12T03:43:22.469Z,70.67
2023-03-12T03:44:21.860Z,70.46
2023-03-12T03:45:22.288Z,70.56
2023-03-12T03:46:22.782Z,70.67
2023-03-12T03:47:22.995Z,70.88
2023-03-12T03:48:23.449Z,71.09
2023-03-12T03:49:21.836Z,71.22
2023-03-12T03:50:23.201Z,71.43
2023-03-12T03:51:21.644Z,71.12
2023-03-12T03:52:22.004Z,71.33
2023-03-12T03:53:22.401Z,71.33
2023-03-12T03:54:22.711Z,71.12
2023-03-12T03:55:23.142Z,71.12
2023-03-12T03:56:21.525Z,71.53
2023-03-12T03:57:23.014Z,71.09
2023-03-12T03:58:22.377Z,71.19
2023-03-12T03:59:21.710Z,71.40
2023-03-12T04:00:22.110Z,71.30
2023-03-12T04:01:21.584Z,70.78
2023-03-12T04:02:21.917Z,70.88
2023-03-12T04:03:22.494Z,70.78
2023-03-12T04:04:21.742Z,70.81
2023-03-12T04:05:22.159Z,70.91
2023-03-12T04:06:21.527Z,70.81
2023-03-12T04:07:22.029Z,70.91
2023-03-12T04:08:23.305Z,70.88
2023-03-12T04:09:22.785Z,70.91
2023-03-12T04:10:22.107Z,71.01
2023-03-12T04:11:21.460Z,71.01
2023-03-12T04:12:22.861Z,70.91
2023-03-12T04:13:22.326Z,70.81
2023-03-12T04:14:21.683Z,71.01
2023-03-12T04:15:22.189Z,71.12
2023-03-12T04:16:22.527Z,70.81
2023-03-12T04:17:21.857Z,71.43
2023-03-12T04:18:22.369Z,71.22
2023-03-12T04:19:22.577Z,71.75
2023-03-12T04:20:23.032Z,71.43
2023-03-12T04:21:21.446Z,71.53
2023-03-12T04:22:21.834Z,71.85
2023-03-12T04:23:21.203Z,71.75
2023-03-12T04:24:21.627Z,72.06
2023-03-12T04:25:22.090Z,71.95
2023-03-12T04:26:21.434Z,72.16
2023-03-12T04:27:21.349Z,72.06
2023-03-12T04:28:22.644Z,72.06
2023-03-12T04:29:23.043Z,72.47
2023-03-12T04:30:22.443Z,72.16
2023-03-12T04:31:22.879Z,71.71
2023-03-12T04:32:21.377Z,71.61
2023-03-12T04:33:21.765Z,71.81
2023-03-12T04:34:22.073Z,72.13
2023-03-12T04:35:21.565Z,72.55
2023-03-12T04:36:22.061Z,72.20
2023-03-12T04:37:21.658Z,72.09
2023-03-12T04:38:21.774Z,71.89
2023-03-12T04:39:22.214Z,71.89
2023-03-12T04:40:21.574Z,72.30
2023-03-12T04:41:21.997Z,72.20
2023-03-12T04:42:21.377Z,73.03
2023-03-12T04:43:22.093Z,72.83
2023-03-12T04:44:22.123Z,72.62
2023-03-12T04:45:21.571Z,73.35
2023-03-12T04:46:21.926Z,73.55
2023-03-12T04:47:22.317Z,73.45
2023-03-12T04:48:21.762Z,73.86
2023-03-12T04:49:22.455Z,74.18
2023-03-12T04:50:21.578Z,74.29
2023-03-12T04:51:21.928Z,75.22
2023-03-12T04:52:22.323Z,75.53
2023-03-12T04:53:21.849Z,76.16
2023-03-12T04:54:21.173Z,76.26
2023-03-12T04:55:21.617Z,76.78
2023-03-12T04:56:20.929Z,77.31
2023-03-12T04:57:22.350Z,77.72
2023-03-12T04:58:21.758Z,78.66
2023-03-12T04:59:22.045Z,79.70
2023-03-12T05:00:22.448Z,79.84
2023-03-12T05:01:20.915Z,80.36
2023-03-12T05:02:21.259Z,80.88
2023-03-12T05:03:22.631Z,81.72
2023-03-12T05:04:21.032Z,82.34
2023-03-12T05:05:21.477Z,83.22
2023-03-12T05:06:20.795Z,84.05
2023-03-12T05:07:21.251Z,84.78
2023-03-12T05:08:22.557Z,85.55
2023-03-12T05:09:21.891Z,86.07
2023-03-12T05:10:22.324Z,86.38
2023-03-12T05:11:20.738Z,86.84
2023-03-12T05:12:22.070Z,87.15
2023-03-12T05:13:21.877Z,87.57
2023-03-12T05:14:20.885Z,87.99
2023-03-12T05:15:22.232Z,88.30
2023-03-12T05:16:20.810Z,88.62
2023-03-12T05:17:21.071Z,88.82
2023-03-12T05:18:21.663Z,89.07
2023-03-12T05:19:21.949Z,89.18
2023-03-12T05:20:21.260Z,89.07
2023-03-12T05:21:21.576Z,89.28
2023-03-12T05:22:21.993Z,89.49
2023-03-12T05:23:22.376Z,89.70
2023-03-12T05:24:20.786Z,89.91
2023-03-12T05:25:21.227Z,89.91
2023-03-12T05:26:20.588Z,90.01
2023-03-12T05:27:21.011Z,90.12
2023-03-12T05:28:21.463Z,90.22
2023-03-12T05:29:21.795Z,90.43
2023-03-12T05:30:22.337Z,90.53
2023-03-12T05:31:20.719Z,90.64
2023-03-12T05:32:21.154Z,90.75
2023-03-12T05:33:20.455Z,91.06
2023-03-12T05:34:21.856Z,91.37
2023-03-12T05:35:21.313Z,91.79
2023-03-12T05:36:20.792Z,92.00
2023-03-12T05:37:21.203Z,92.21
2023-03-12T05:38:21.569Z,92.52
2023-03-12T05:39:20.938Z,92.83
2023-03-12T05:40:20.329Z,93.15
2023-03-12T05:41:20.756Z,93.15
2023-03-12T05:42:21.236Z,93.35
2023-03-12T05:43:21.538Z,93.57
2023-03-12T05:44:21.955Z,93.77
2023-03-12T05:45:21.335Z,93.67
2023-03-12T05:46:20.815Z,93.77
2023-03-12T05:47:20.816Z,93.98
2023-03-12T05:48:21.601Z,94.09
2023-03-12T05:49:21.086Z,94.19
2023-03-12T05:50:20.450Z,94.29
2023-03-12T05:51:20.938Z,94.40
2023-03-12T05:52:21.230Z,94.71
2023-03-12T05:53:20.758Z,94.82
2023-03-12T05:54:20.193Z,95.23
2023-03-12T05:55:21.482Z,95.55
2023-03-12T05:56:20.947Z,95.76
2023-03-12T05:57:20.379Z,95.97
2023-03-12T05:58:20.801Z,96.07
2023-03-12T05:59:20.180Z,96.17
2023-03-12T06:00:21.538Z,96.28
2023-03-12T06:01:20.941Z,96.38
2023-03-12T06:02:21.397Z,96.38
2023-03-12T06:03:21.821Z,96.38
2023-03-12T06:04:20.294Z,96.53
2023-03-12T06:05:21.592Z,96.59
2023-03-12T06:06:20.020Z,96.59
2023-03-12T06:07:20.463Z,96.59
2023-03-12T06:08:22.324Z,96.80
2023-03-12T06:09:21.194Z,96.70
2023-03-12T06:10:20.803Z,96.49
2023-03-12T06:11:21.011Z,96.28
2023-03-12T06:12:21.460Z,96.28
2023-03-12T06:13:19.872Z,96.38
2023-03-12T06:14:20.299Z,96.49
2023-03-12T06:15:20.758Z,96.59
2023-03-12T06:16:20.460Z,96.38
2023-03-12T06:17:21.528Z,96.23
2023-03-12T06:18:19.937Z,96.13
2023-03-12T06:19:21.320Z,96.13
2023-03-12T06:20:20.698Z,95.82
2023-03-12T06:21:20.318Z,95.76
2023-03-12T06:22:20.588Z,95.76
2023-03-12T06:23:21.947Z,95.86
2023-03-12T06:24:20.380Z,95.86
2023-03-12T06:25:19.804Z,95.76
2023-03-12T06:26:20.245Z,95.65
2023-03-12T06:27:19.602Z,95.65
2023-03-12T06:28:20.011Z,95.65
2023-03-12T06:29:21.443Z,95.76
2023-03-12T06:30:19.829Z,95.76
2023-03-12T06:31:20.391Z,95.55
2023-03-12T06:32:19.748Z,95.55
2023-03-12T06:33:21.022Z,95.55
2023-03-12T06:34:21.451Z,95.55
2023-03-12T06:35:20.858Z,95.65
2023-03-12T06:36:21.209Z,95.65
2023-03-12T06:37:20.612Z,95.55
2023-03-12T06:38:20.078Z,95.61
2023-03-12T06:39:21.432Z,95.61
2023-03-12T06:40:19.841Z,95.61
2023-03-12T06:41:20.298Z,95.40
2023-03-12T06:42:20.570Z,95.34
2023-03-12T06:43:20.017Z,95.34
2023-03-12T06:44:19.381Z,95.34
2023-03-12T06:45:20.744Z,95.19
2023-03-12T06:46:20.266Z,94.98
2023-03-12T06:47:20.528Z,94.98
2023-03-12T06:48:20.947Z,94.98
2023-03-12T06:49:20.309Z,94.88
2023-03-12T06:50:19.776Z,94.98
2023-03-12T06:51:20.217Z,94.98
2023-03-12T06:52:20.543Z,94.88
2023-03-12T06:53:20.938Z,94.57
2023-03-12T06:54:20.269Z,94.57
2023-03-12T06:55:19.731Z,94.67
2023-03-12T06:56:21.109Z,94.52
2023-03-12T06:57:19.496Z,94.31
2023-03-12T06:58:19.988Z,93.69
2023-03-12T06:59:20.338Z,93.48
2023-03-12T07:00:19.747Z,93.48
2023-03-12T07:01:20.222Z,93.37
2023-03-12T07:02:19.738Z,93.37
2023-03-12T07:03:20.029Z,93.16
2023-03-12T07:04:20.371Z,92.96
2023-03-12T07:05:19.951Z,92.65
2023-03-12T07:06:20.225Z,92.96
2023-03-12T07:07:19.711Z,93.06
2023-03-12T07:08:20.171Z,93.06
2023-03-12T07:09:21.618Z,92.91
2023-03-12T07:10:20.032Z,92.71
2023-03-12T07:11:21.345Z,92.29
2023-03-12T07:12:20.763Z,91.97
2023-03-12T07:13:20.268Z,92.18
2023-03-12T07:14:20.590Z,92.29
2023-03-12T07:15:20.024Z,92.40
2023-03-12T07:16:19.673Z,92.50
2023-03-12T07:17:20.802Z,92.50
2023-03-12T07:18:19.271Z,92.60
2023-03-12T07:19:20.734Z,92.60
2023-03-12T07:20:19.154Z,92.81
2023-03-12T07:21:20.494Z,92.81
2023-03-12T07:22:20.972Z,92.91
2023-03-12T07:23:20.370Z,93.12
2023-03-12T07:24:19.840Z,93.02
2023-03-12T07:25:19.241Z,92.87
2023-03-12T07:26:20.636Z,92.66
2023-03-12T07:27:20.045Z,92.77
2023-03-12T07:28:19.586Z,92.77
2023-03-12T07:29:19.826Z,92.66
2023-03-12T07:30:19.426Z,92.77
2023-03-12T07:31:19.888Z,92.87
2023-03-12T07:32:19.201Z,92.66
2023-03-12T07:33:19.656Z,92.66
2023-03-12T07:34:20.390Z,92.41
2023-03-12T07:35:20.531Z,92.31
2023-03-12T07:36:19.971Z,92.41
2023-03-12T07:37:19.215Z,92.52
2023-03-12T07:38:20.661Z,92.52
2023-03-12T07:39:19.019Z,92.41
2023-03-12T07:40:19.561Z,92.31
2023-03-12T07:41:19.954Z,92.41
2023-03-12T07:42:20.569Z,92.52
2023-03-12T07:43:21.639Z,92.41
2023-03-12T07:44:19.092Z,92.41
2023-03-12T07:45:19.553Z,92.21
2023-03-12T07:46:19.924Z,92.31
2023-03-12T07:47:24.240Z,92.21
2023-03-12T07:48:19.772Z,92.10
2023-03-12T07:49:20.052Z,92.10
2023-03-12T07:50:20.458Z,92.21
2023-03-12T07:51:18.957Z,92.21
2023-03-12T07:52:20.910Z,92.52
2023-03-12T07:53:20.650Z,92.89
2023-03-12T07:54:20.007Z,92.89
2023-03-12T07:55:19.636Z,92.68
2023-03-12T07:56:19.923Z,92.79
2023-03-12T07:57:19.318Z,93.10
2023-03-12T07:58:19.827Z,93.20
2023-03-12T07:59:20.083Z,93.20
2023-03-12T08:00:19.502Z,93.31
2023-03-12T08:01:19.885Z,93.48
2023-03-12T08:02:20.313Z,93.37
2023-03-12T08:03:19.898Z,92.95
2023-03-12T08:04:20.207Z,93.05
2023-03-12T08:05:19.430Z,93.05
2023-03-12T08:06:19.949Z,93.16
2023-03-12T08:07:20.256Z,93.58
2023-03-12T08:08:19.768Z,93.68
2023-03-12T08:09:20.020Z,93.37
2023-03-12T08:10:18.785Z,92.95
2023-03-12T08:11:18.855Z,92.64
2023-03-12T08:12:19.316Z,92.85
2023-03-12T08:13:18.671Z,92.95
2023-03-12T08:14:19.071Z,92.85
2023-03-12T08:15:18.436Z,93.05
2023-03-12T08:16:18.913Z,93.37
2023-03-12T08:17:18.228Z,93.16
2023-03-12T08:18:19.588Z,93.37
2023-03-12T08:19:20.076Z,93.37
2023-03-12T08:20:19.423Z,93.37
2023-03-12T08:21:19.797Z,93.27
2023-03-12T08:22:19.761Z,93.27
2023-03-12T08:23:18.632Z,93.68
2023-03-12T08:24:19.039Z,93.79
2023-03-12T08:25:18.413Z,93.89
2023-03-12T08:26:19.769Z,93.99
2023-03-12T08:27:19.159Z,93.99
2023-03-12T08:28:19.580Z,93.95
2023-03-12T08:29:19.023Z,93.85
2023-03-12T08:30:18.386Z,93.85
2023-03-12T08:31:18.819Z,93.43
2023-03-12T08:32:18.274Z,93.23
2023-03-12T08:33:18.565Z,93.23
2023-03-12T08:34:20.023Z,93.33
2023-03-12T08:35:18.360Z,93.33
2023-03-12T08:36:20.651Z,93.33
2023-03-12T08:37:18.123Z,93.33
2023-03-12T08:38:19.483Z,93.54
2023-03-12T08:39:21.088Z,93.85
2023-03-12T08:40:18.317Z,94.06
2023-03-12T08:41:18.709Z,94.01
2023-03-12T08:42:19.039Z,93.80
2023-03-12T08:43:19.465Z,93.80
2023-03-12T08:44:18.833Z,93.80
2023-03-12T08:45:19.683Z,93.80
2023-03-12T08:46:18.729Z,93.70
2023-03-12T08:47:18.051Z,93.49
2023-03-12T08:48:18.466Z,93.49
2023-03-12T08:49:17.826Z,93.45
2023-03-12T08:50:18.216Z,93.29
2023-03-12T08:51:19.201Z,93.29
2023-03-12T08:52:18.014Z,93.07
2023-03-12T08:53:18.466Z,93.14
2023-03-12T08:54:17.933Z,93.18
2023-03-12T08:55:18.157Z,93.55
2023-03-12T08:56:19.508Z,93.55
2023-03-12T08:57:18.087Z,93.24
2023-03-12T08:58:19.312Z,93.66
2023-03-12T08:59:18.623Z,93.76
2023-03-12T09:00:18.114Z,93.87
2023-03-12T09:01:19.387Z,94.07
2023-03-12T09:02:18.725Z,94.18
2023-03-12T09:03:18.440Z,94.18
2023-03-12T09:04:18.633Z,94.07
2023-03-12T09:05:18.820Z,94.07
2023-03-12T09:06:18.222Z,94.38
2023-03-12T09:07:18.511Z,94.49
2023-03-12T09:08:18.871Z,94.70
2023-03-12T09:09:19.309Z,94.80
2023-03-12T09:10:18.585Z,94.90
2023-03-12T09:11:18.005Z,95.11
2023-03-12T09:12:19.308Z,95.53
2023-03-12T09:13:18.729Z,95.42
2023-03-12T09:14:59.498Z,95.32
2023-03-12T09:15:19.460Z,95.32
2023-03-12T09:16:17.809Z,95.38
2023-03-12T09:17:18.153Z,95.48
2023-03-12T09:18:18.420Z,95.59
2023-03-12T09:19:18.812Z,95.79
2023-03-12T09:20:19.444Z,96.00
2023-03-12T09:21:18.511Z,96.21
2023-03-12T09:22:17.889Z,96.21
2023-03-12T09:23:18.297Z,96.31
2023-03-12T09:24:17.633Z,96.52
2023-03-12T09:25:18.930Z,96.52
2023-03-12T09:26:18.347Z,96.73
2023-03-12T09:27:18.639Z,96.79
2023-03-12T09:28:19.034Z,96.89
2023-03-12T09:29:20.475Z,96.89
2023-03-12T09:30:17.786Z,96.89
2023-03-12T09:31:19.207Z,97.00
2023-03-12T09:32:18.474Z,97.10
2023-03-12T09:33:17.893Z,97.27
2023-03-12T09:34:17.201Z,97.27
2023-03-12T09:35:18.513Z,97.06
2023-03-12T09:36:18.886Z,97.06
2023-03-12T09:37:17.297Z,97.37
2023-03-12T09:38:18.613Z,97.47
2023-03-12T09:39:18.002Z,97.47
2023-03-12T09:40:18.275Z,97.47
2023-03-12T09:41:18.634Z,97.68
2023-03-12T09:42:18.572Z,97.74
2023-03-12T09:43:17.396Z,97.85
2023-03-12T09:44:18.724Z,97.95
2023-03-12T09:45:17.099Z,98.16
2023-03-12T09:46:17.470Z,98.26
2023-03-12T09:47:17.817Z,98.36
2023-03-12T09:48:17.132Z,98.57
2023-03-12T09:49:17.493Z,98.78
2023-03-12T09:50:18.781Z,98.88
2023-03-12T09:51:17.160Z,98.99
2023-03-12T09:52:17.537Z,99.19
2023-03-12T09:53:18.111Z,99.19
2023-03-12T09:54:17.247Z,99.30
2023-03-12T09:55:18.539Z,99.19
2023-03-12T09:56:16.889Z,99.40
2023-03-12T09:57:18.212Z,99.40
2023-03-12T09:58:17.628Z,99.51
2023-03-12T09:59:17.143Z,99.51
2023-03-12T10:00:18.308Z,99.61
2023-03-12T10:01:17.718Z,99.61
2023-03-12T10:02:18.004Z,99.71
2023-03-12T10:03:18.391Z,99.77
2023-03-12T10:04:18.835Z,99.77
2023-03-12T10:05:17.123Z,99.77
2023-03-12T10:06:18.396Z,99.77
2023-03-12T10:07:16.755Z,99.77
2023-03-12T10:08:25.305Z,99.77
2023-03-12T10:09:18.514Z,99.87
2023-03-12T10:10:17.774Z,99.87
2023-03-12T10:11:18.156Z,99.87
2023-03-12T10:12:18.484Z,99.98
2023-03-12T10:13:17.837Z,99.99
2023-03-12T10:14:23.799Z,99.99
2023-03-12T10:15:19.559Z,99.99
2023-03-12T10:16:16.929Z,99.99
2023-03-12T10:17:18.200Z,99.99
2023-03-12T10:18:17.676Z,99.99
2023-03-12T10:19:16.915Z,99.99
2023-03-12T10:20:17.270Z,99.99
2023-03-12T10:21:18.916Z,99.99
2023-03-12T10:22:17.936Z,99.99
2023-03-12T10:23:17.279Z,99.99
2023-03-12T10:24:17.614Z,99.99
2023-03-12T10:25:17.899Z,99.99
2023-03-12T10:26:18.254Z,99.99
2023-03-12T10:27:17.677Z,99.99
2023-03-12T10:28:16.978Z,99.99
2023-03-12T10:29:18.304Z,99.99
2023-03-12T10:30:17.609Z,99.99
2023-03-12T10:31:17.975Z,99.99
2023-03-12T10:32:18.126Z,99.99
2023-03-12T10:33:17.613Z,99.99
2023-03-12T10:34:17.934Z,99.99
2023-03-12T10:35:21.154Z,99.99
2023-03-12T10:36:17.619Z,99.99
2023-03-12T10:37:17.019Z,99.99
2023-03-12T10:38:18.488Z,99.99
2023-03-12T10:39:19.705Z,99.99
2023-03-12T10:40:17.043Z,99.99
2023-03-12T10:41:16.351Z,99.99
2023-03-12T10:42:17.682Z,99.99
2023-03-12T10:43:18.023Z,99.99
2023-03-12T10:44:16.448Z,99.99
2023-03-12T10:45:16.729Z,99.99
2023-03-12T10:46:18.063Z,99.99
2023-03-12T10:47:16.408Z,99.99
2023-03-12T10:48:17.713Z,99.99
2023-03-12T10:49:18.118Z,99.99
2023-03-12T10:50:16.457Z,99.99
2023-03-12T10:51:17.788Z,99.99
2023-03-12T10:52:17.241Z,99.99
2023-03-12T10:53:16.517Z,99.99
2023-03-12T10:54:17.843Z,99.99
2023-03-12T10:55:16.228Z,99.99
2023-03-12T10:56:17.498Z,99.99
2023-03-12T10:57:17.874Z,99.99
2023-03-12T10:58:16.213Z,99.99
2023-03-12T10:59:21.763Z,99.99
2023-03-12T11:00:16.947Z,99.99
2023-03-12T11:01:16.345Z,99.99
2023-03-12T11:02:17.581Z,99.99
2023-03-12T11:03:17.033Z,99.99
2023-03-12T11:04:16.377Z,99.99
2023-03-12T11:05:17.683Z,99.92
2023-03-12T11:06:16.103Z,99.71
2023-03-12T11:07:16.382Z,99.61
2023-03-12T11:08:16.789Z,99.56
2023-03-12T11:09:17.493Z,99.46
2023-03-12T11:10:16.439Z,99.46
2023-03-12T11:11:17.794Z,99.46
2023-03-12T11:12:16.113Z,99.46
2023-03-12T11:13:16.465Z,99.31
2023-03-12T11:14:16.802Z,99.21
2023-03-12T11:15:16.123Z,99.31
2023-03-12T11:16:16.548Z,99.31
2023-03-12T11:17:16.872Z,99.31
2023-03-12T11:18:16.164Z,98.96
2023-03-12T11:19:16.492Z,98.75
2023-03-12T11:20:16.770Z,98.44
2023-03-12T11:21:16.194Z,98.23
2023-03-12T11:22:16.523Z,98.02
2023-03-12T11:23:15.846Z,97.82
2023-03-12T11:24:16.201Z,97.61
2023-03-12T11:25:16.555Z,97.30
2023-03-12T11:26:15.853Z,97.20
2023-03-12T11:27:17.156Z,96.95
2023-03-12T11:28:16.638Z,96.74
2023-03-12T11:29:15.865Z,96.84
2023-03-12T11:30:16.239Z,96.95
2023-03-12T11:31:16.660Z,97.05
2023-03-12T11:32:15.870Z,97.05
2023-03-12T11:33:16.217Z,96.91
2023-03-12T11:34:16.569Z,96.70
2023-03-12T11:35:17.954Z,96.59
2023-03-12T11:36:16.192Z,96.80
2023-03-12T11:37:16.519Z,96.80
2023-03-12T11:38:15.840Z,96.80
2023-03-12T11:39:16.187Z,96.80
2023-03-12T11:40:18.153Z,96.86
2023-03-12T11:41:15.808Z,96.75
2023-03-12T11:42:16.123Z,96.75
2023-03-12T11:43:16.468Z,96.86
2023-03-12T11:44:15.733Z,96.96
2023-03-12T11:45:16.070Z,96.96
2023-03-12T11:46:17.389Z,96.96
2023-03-12T11:47:15.709Z,96.96
2023-03-12T11:48:16.084Z,97.06
2023-03-12T11:49:16.337Z,97.13
2023-03-12T11:50:15.598Z,97.13
2023-03-12T11:51:15.964Z,97.13
2023-03-12T11:52:17.375Z,97.13
2023-03-12T11:53:15.603Z,97.13
2023-03-12T11:54:15.987Z,97.02
2023-03-12T11:55:17.208Z,96.88
2023-03-12T11:56:15.632Z,96.77
2023-03-12T11:57:15.977Z,96.67
2023-03-12T11:58:17.208Z,96.46
2023-03-12T11:59:15.628Z,96.42
2023-03-12T12:00:15.974Z,96.21
2023-03-12T12:01:16.317Z,95.86
2023-03-12T12:02:15.647Z,95.45
2023-03-12T12:03:15.533Z,95.34
2023-03-12T12:04:15.735Z,94.89
2023-03-12T12:05:16.060Z,94.89
2023-03-12T12:06:15.362Z,94.68
2023-03-12T12:07:15.710Z,94.64
2023-03-12T12:08:16.045Z,94.33
2023-03-12T12:09:15.376Z,94.33
2023-03-12T12:10:15.656Z,94.18
2023-03-12T12:11:16.009Z,94.08
2023-03-12T12:12:15.280Z,94.18
2023-03-12T12:13:15.599Z,93.57
2023-03-12T12:14:15.959Z,93.42
2023-03-12T12:15:15.245Z,93.32
2023-03-12T12:16:16.613Z,92.60
2023-03-12T12:17:15.841Z,92.86
2023-03-12T12:18:15.151Z,92.04
2023-03-12T12:19:16.415Z,91.94
2023-03-12T12:20:15.839Z,91.94
2023-03-12T12:21:15.060Z,92.00
2023-03-12T12:22:15.411Z,91.49
2023-03-12T12:23:16.643Z,91.38
2023-03-12T12:24:18.197Z,91.49
2023-03-12T12:25:16.244Z,91.49
2023-03-12T12:26:15.632Z,91.90
2023-03-12T12:27:15.880Z,92.31
2023-03-12T12:28:16.123Z,92.00
2023-03-12T12:29:15.466Z,91.80
2023-03-12T12:30:15.777Z,91.80
2023-03-12T12:31:15.395Z,91.59
2023-03-12T12:32:15.758Z,91.18
2023-03-12T12:33:15.877Z,91.03
2023-03-12T12:34:15.115Z,91.24
2023-03-12T12:35:15.380Z,90.22
2023-03-12T12:36:15.671Z,90.32
2023-03-12T12:37:14.849Z,90.52
2023-03-12T12:38:15.115Z,90.11
2023-03-12T12:39:16.312Z,90.22
2023-03-12T12:40:16.585Z,89.97
2023-03-12T12:41:14.826Z,90.28
2023-03-12T12:42:16.029Z,90.28
2023-03-12T12:43:15.374Z,89.97
2023-03-12T12:44:16.544Z,89.56
2023-03-12T12:45:14.824Z,89.25
2023-03-12T12:46:15.144Z,89.15
2023-03-12T12:47:15.366Z,89.25
2023-03-12T12:48:15.651Z,88.90
2023-03-12T12:49:14.916Z,88.29
2023-03-12T12:50:15.156Z,88.18
2023-03-12T12:51:15.429Z,87.77
2023-03-12T12:52:14.697Z,88.35